sensor_id;sensor_type;location;lat;lon;timestamp;P1;durP1;ratioP1;P2;durP2;ratioP2
946;SDS011;460;48.734;9.152;2024-02-16T00:00:08;4.10;;;3.50;;
946;SDS011;460;48.734;9.152;2024-02-16T00:02:37;9.90;;;4.40;;
946;SDS011;460;48.734;9.152;2024-02-16T00:05:04;7.93;;;3.97;;
946;SDS011;460;48.734;9.152;2024-02-16T00:07:32;5.00;;;3.90;;
946;SDS011;460;48.734;9.152;2024-02-16T00:10:01;4.77;;;4.33;;
946;SDS011;460;48.734;9.152;2024-02-16T00:12:29;4.40;;;4.00;;
946;SDS011;460;48.734;9.152;2024-02-16T00:14:57;6.93;;;4.67;;
946;SDS011;460;48.734;9.152;2024-02-16T00:17:24;5.73;;;4.60;;
946;SDS011;460;48.734;9.152;2024-02-16T00:19:52;10.50;;;4.77;;
946;SDS011;460;48.734;9.152;2024-02-16T00:22:19;5.53;;;4.20;;
946;SDS011;460;48.734;9.152;2024-02-16T00:24:46;6.43;;;4.70;;
946;SDS011;460;48.734;9.152;2024-02-16T00:27:15;6.47;;;4.57;;
946;SDS011;460;48.734;9.152;2024-02-16T00:29:42;5.00;;;4.50;;
946;SDS011;460;48.734;9.152;2024-02-16T00:32:09;3.97;;;3.67;;
946;SDS011;460;48.734;9.152;2024-02-16T00:34:36;3.60;;;3.20;;
946;SDS011;460;48.734;9.152;2024-02-16T00:37:04;4.37;;;3.97;;
946;SDS011;460;48.734;9.152;2024-02-16T00:39:34;3.60;;;3.30;;
946;SDS011;460;48.734;9.152;2024-02-16T00:42:01;3.13;;;2.80;;
946;SDS011;460;48.734;9.152;2024-02-16T00:44:30;3.87;;;3.57;;
946;SDS011;460;48.734;9.152;2024-02-16T00:46:55;6.30;;;5.70;;
946;SDS011;460;48.734;9.152;2024-02-16T00:49:23;3.83;;;3.40;;
946;SDS011;460;48.734;9.152;2024-02-16T00:51:50;4.67;;;4.17;;
946;SDS011;460;48.734;9.152;2024-02-16T00:54:17;3.90;;;3.40;;
946;SDS011;460;48.734;9.152;2024-02-16T00:56:45;4.00;;;3.67;;
946;SDS011;460;48.734;9.152;2024-02-16T00:59:12;3.50;;;3.20;;
946;SDS011;460;48.734;9.152;2024-02-16T01:01:40;4.47;;;3.30;;
946;SDS011;460;48.734;9.152;2024-02-16T01:04:07;5.07;;;3.23;;
946;SDS011;460;48.734;9.152;2024-02-16T01:06:34;5.37;;;3.93;;
946;SDS011;460;48.734;9.152;2024-02-16T01:09:01;4.90;;;4.00;;
946;SDS011;460;48.734;9.152;2024-02-16T01:11:28;3.23;;;2.87;;
946;SDS011;460;48.734;9.152;2024-02-16T01:13:55;3.27;;;2.97;;
946;SDS011;460;48.734;9.152;2024-02-16T01:16:22;5.90;;;2.90;;
946;SDS011;460;48.734;9.152;2024-02-16T01:18:51;3.37;;;3.07;;
946;SDS011;460;48.734;9.152;2024-02-16T01:21:18;4.90;;;3.07;;
946;SDS011;460;48.734;9.152;2024-02-16T01:23:44;4.50;;;4.10;;
946;SDS011;460;48.734;9.152;2024-02-16T01:26:11;3.60;;;3.30;;
946;SDS011;460;48.734;9.152;2024-02-16T01:28:39;4.80;;;3.40;;
946;SDS011;460;48.734;9.152;2024-02-16T01:31:06;3.43;;;3.13;;
946;SDS011;460;48.734;9.152;2024-02-16T01:33:35;5.37;;;3.60;;
946;SDS011;460;48.734;9.152;2024-02-16T01:36:03;5.93;;;3.97;;
946;SDS011;460;48.734;9.152;2024-02-16T01:38:30;3.57;;;3.27;;
946;SDS011;460;48.734;9.152;2024-02-16T01:40:58;5.90;;;3.90;;
946;SDS011;460;48.734;9.152;2024-02-16T01:43:25;3.03;;;2.77;;
946;SDS011;460;48.734;9.152;2024-02-16T01:45:52;4.83;;;3.23;;
946;SDS011;460;48.734;9.152;2024-02-16T01:48:19;3.03;;;2.83;;
946;SDS011;460;48.734;9.152;2024-02-16T01:50:46;2.40;;;2.17;;
946;SDS011;460;48.734;9.152;2024-02-16T01:53:16;3.77;;;3.37;;
946;SDS011;460;48.734;9.152;2024-02-16T01:55:43;2.93;;;2.70;;
946;SDS011;460;48.734;9.152;2024-02-16T01:58:10;3.20;;;2.90;;
946;SDS011;460;48.734;9.152;2024-02-16T02:00:38;4.80;;;2.73;;
946;SDS011;460;48.734;9.152;2024-02-16T02:03:06;3.83;;;3.43;;
946;SDS011;460;48.734;9.152;2024-02-16T02:05:32;2.73;;;2.37;;
946;SDS011;460;48.734;9.152;2024-02-16T02:08:08;3.97;;;3.67;;
946;SDS011;460;48.734;9.152;2024-02-16T02:10:37;4.00;;;3.07;;
946;SDS011;460;48.734;9.152;2024-02-16T02:13:03;3.73;;;3.33;;
946;SDS011;460;48.734;9.152;2024-02-16T02:15:30;4.10;;;3.00;;
946;SDS011;460;48.734;9.152;2024-02-16T02:17:57;3.70;;;3.40;;
946;SDS011;460;48.734;9.152;2024-02-16T02:20:25;6.50;;;2.93;;
946;SDS011;460;48.734;9.152;2024-02-16T02:22:55;3.50;;;3.20;;
946;SDS011;460;48.734;9.152;2024-02-16T02:25:22;4.90;;;3.33;;
946;SDS011;460;48.734;9.152;2024-02-16T02:27:50;2.83;;;2.63;;
946;SDS011;460;48.734;9.152;2024-02-16T02:30:18;3.07;;;2.80;;
946;SDS011;460;48.734;9.152;2024-02-16T02:32:49;4.00;;;3.23;;
946;SDS011;460;48.734;9.152;2024-02-16T02:35:17;3.40;;;3.00;;
946;SDS011;460;48.734;9.152;2024-02-16T02:37:45;3.77;;;2.80;;
946;SDS011;460;48.734;9.152;2024-02-16T02:40:15;6.37;;;3.13;;
946;SDS011;460;48.734;9.152;2024-02-16T02:42:42;3.90;;;3.37;;
946;SDS011;460;48.734;9.152;2024-02-16T02:45:10;3.20;;;2.90;;
946;SDS011;460;48.734;9.152;2024-02-16T02:47:38;3.47;;;2.70;;
946;SDS011;460;48.734;9.152;2024-02-16T02:50:06;3.40;;;3.10;;
946;SDS011;460;48.734;9.152;2024-02-16T02:52:35;5.30;;;3.13;;
946;SDS011;460;48.734;9.152;2024-02-16T02:55:03;3.80;;;3.33;;
946;SDS011;460;48.734;9.152;2024-02-16T02:57:33;3.33;;;2.83;;
946;SDS011;460;48.734;9.152;2024-02-16T03:00:02;7.93;;;3.30;;
946;SDS011;460;48.734;9.152;2024-02-16T03:02:32;4.83;;;3.23;;
946;SDS011;460;48.734;9.152;2024-02-16T03:04:59;3.10;;;2.80;;
946;SDS011;460;48.734;9.152;2024-02-16T03:07:27;2.43;;;2.30;;
946;SDS011;460;48.734;9.152;2024-02-16T03:09:54;7.67;;;3.20;;
946;SDS011;460;48.734;9.152;2024-02-16T03:12:22;3.80;;;3.50;;
946;SDS011;460;48.734;9.152;2024-02-16T03:14:51;3.03;;;2.63;;
946;SDS011;460;48.734;9.152;2024-02-16T03:17:19;4.10;;;2.50;;
946;SDS011;460;48.734;9.152;2024-02-16T03:19:47;3.20;;;2.90;;
946;SDS011;460;48.734;9.152;2024-02-16T03:22:15;2.77;;;2.57;;
946;SDS011;460;48.734;9.152;2024-02-16T03:24:43;2.77;;;2.40;;
946;SDS011;460;48.734;9.152;2024-02-16T03:27:12;3.30;;;2.73;;
946;SDS011;460;48.734;9.152;2024-02-16T03:29:40;3.20;;;2.90;;
946;SDS011;460;48.734;9.152;2024-02-16T03:32:08;3.67;;;3.13;;
946;SDS011;460;48.734;9.152;2024-02-16T03:34:35;2.70;;;2.50;;
946;SDS011;460;48.734;9.152;2024-02-16T03:37:03;4.10;;;3.53;;
946;SDS011;460;48.734;9.152;2024-02-16T03:39:31;4.00;;;3.10;;
946;SDS011;460;48.734;9.152;2024-02-16T03:41:59;2.30;;;2.10;;
946;SDS011;460;48.734;9.152;2024-02-16T03:44:27;3.23;;;2.97;;
946;SDS011;460;48.734;9.152;2024-02-16T03:46:55;2.90;;;2.70;;
946;SDS011;460;48.734;9.152;2024-02-16T03:49:24;4.20;;;3.73;;
946;SDS011;460;48.734;9.152;2024-02-16T03:51:53;3.20;;;2.90;;
946;SDS011;460;48.734;9.152;2024-02-16T03:54:20;3.00;;;2.70;;
946;SDS011;460;48.734;9.152;2024-02-16T03:56:47;4.50;;;2.80;;
946;SDS011;460;48.734;9.152;2024-02-16T03:59:14;3.07;;;2.53;;
946;SDS011;460;48.734;9.152;2024-02-16T04:01:41;3.57;;;3.00;;
946;SDS011;460;48.734;9.152;2024-02-16T04:04:08;3.13;;;2.80;;
946;SDS011;460;48.734;9.152;2024-02-16T04:06:36;2.73;;;2.53;;
946;SDS011;460;48.734;9.152;2024-02-16T04:09:04;3.03;;;2.80;;
946;SDS011;460;48.734;9.152;2024-02-16T04:11:31;4.40;;;3.83;;
946;SDS011;460;48.734;9.152;2024-02-16T04:13:58;3.67;;;3.30;;
946;SDS011;460;48.734;9.152;2024-02-16T04:16:25;4.30;;;3.90;;
946;SDS011;460;48.734;9.152;2024-02-16T04:18:52;3.23;;;2.93;;
946;SDS011;460;48.734;9.152;2024-02-16T04:21:20;4.17;;;3.37;;
946;SDS011;460;48.734;9.152;2024-02-16T04:23:48;4.10;;;3.70;;
946;SDS011;460;48.734;9.152;2024-02-16T04:26:15;4.40;;;3.90;;
946;SDS011;460;48.734;9.152;2024-02-16T04:28:42;6.67;;;3.87;;
946;SDS011;460;48.734;9.152;2024-02-16T04:31:09;4.37;;;3.10;;
946;SDS011;460;48.734;9.152;2024-02-16T04:33:36;3.90;;;3.07;;
946;SDS011;460;48.734;9.152;2024-02-16T04:36:05;3.57;;;3.27;;
946;SDS011;460;48.734;9.152;2024-02-16T04:38:33;4.27;;;3.60;;
946;SDS011;460;48.734;9.152;2024-02-16T04:41:01;3.87;;;3.43;;
946;SDS011;460;48.734;9.152;2024-02-16T04:43:30;4.90;;;4.40;;
946;SDS011;460;48.734;9.152;2024-02-16T04:45:57;5.50;;;4.70;;
946;SDS011;460;48.734;9.152;2024-02-16T04:48:24;5.50;;;4.97;;
946;SDS011;460;48.734;9.152;2024-02-16T04:50:51;4.77;;;4.40;;
946;SDS011;460;48.734;9.152;2024-02-16T04:53:19;5.90;;;4.83;;
946;SDS011;460;48.734;9.152;2024-02-16T04:55:46;6.50;;;5.00;;
946;SDS011;460;48.734;9.152;2024-02-16T04:58:14;6.20;;;4.73;;
946;SDS011;460;48.734;9.152;2024-02-16T05:00:41;8.67;;;6.57;;
946;SDS011;460;48.734;9.152;2024-02-16T05:03:11;21.57;;;17.33;;
946;SDS011;460;48.734;9.152;2024-02-16T05:05:38;21.60;;;18.97;;
946;SDS011;460;48.734;9.152;2024-02-16T05:08:06;14.30;;;12.07;;
946;SDS011;460;48.734;9.152;2024-02-16T05:10:33;9.20;;;7.70;;
946;SDS011;460;48.734;9.152;2024-02-16T05:13:00;7.17;;;6.57;;
946;SDS011;460;48.734;9.152;2024-02-16T05:15:28;7.57;;;4.47;;
946;SDS011;460;48.734;9.152;2024-02-16T05:17:55;3.83;;;3.53;;
946;SDS011;460;48.734;9.152;2024-02-16T05:20:22;5.33;;;4.70;;
946;SDS011;460;48.734;9.152;2024-02-16T05:22:50;4.73;;;4.30;;
946;SDS011;460;48.734;9.152;2024-02-16T05:25:18;5.33;;;4.40;;
946;SDS011;460;48.734;9.152;2024-02-16T05:27:45;6.00;;;4.93;;
946;SDS011;460;48.734;9.152;2024-02-16T05:30:12;5.23;;;4.70;;
946;SDS011;460;48.734;9.152;2024-02-16T05:32:42;7.93;;;5.00;;
946;SDS011;460;48.734;9.152;2024-02-16T05:35:09;4.97;;;4.43;;
946;SDS011;460;48.734;9.152;2024-02-16T05:37:38;5.37;;;4.87;;
946;SDS011;460;48.734;9.152;2024-02-16T05:40:07;5.50;;;4.83;;
946;SDS011;460;48.734;9.152;2024-02-16T05:42:44;8.53;;;5.70;;
946;SDS011;460;48.734;9.152;2024-02-16T05:45:12;5.70;;;4.70;;
946;SDS011;460;48.734;9.152;2024-02-16T05:47:39;7.10;;;5.20;;
946;SDS011;460;48.734;9.152;2024-02-16T05:50:08;5.70;;;5.13;;
946;SDS011;460;48.734;9.152;2024-02-16T05:52:37;4.40;;;4.00;;
946;SDS011;460;48.734;9.152;2024-02-16T05:55:04;6.00;;;4.70;;
946;SDS011;460;48.734;9.152;2024-02-16T05:57:32;7.07;;;5.93;;
946;SDS011;460;48.734;9.152;2024-02-16T05:59:59;5.20;;;4.33;;
946;SDS011;460;48.734;9.152;2024-02-16T06:02:29;6.33;;;4.30;;
946;SDS011;460;48.734;9.152;2024-02-16T06:04:55;4.63;;;4.23;;
946;SDS011;460;48.734;9.152;2024-02-16T06:07:24;4.97;;;4.40;;
946;SDS011;460;48.734;9.152;2024-02-16T06:09:50;4.30;;;3.80;;
946;SDS011;460;48.734;9.152;2024-02-16T06:12:19;4.63;;;4.23;;
946;SDS011;460;48.734;9.152;2024-02-16T06:14:46;5.83;;;4.57;;
946;SDS011;460;48.734;9.152;2024-02-16T06:17:14;7.33;;;4.40;;
946;SDS011;460;48.734;9.152;2024-02-16T06:19:41;5.30;;;4.30;;
946;SDS011;460;48.734;9.152;2024-02-16T06:22:08;6.67;;;4.63;;
946;SDS011;460;48.734;9.152;2024-02-16T06:24:37;5.83;;;4.33;;
946;SDS011;460;48.734;9.152;2024-02-16T06:27:04;9.60;;;4.90;;
946;SDS011;460;48.734;9.152;2024-02-16T06:29:33;5.20;;;4.43;;
946;SDS011;460;48.734;9.152;2024-02-16T06:32:00;5.20;;;4.10;;
946;SDS011;460;48.734;9.152;2024-02-16T06:34:27;4.40;;;4.00;;
946;SDS011;460;48.734;9.152;2024-02-16T06:36:54;4.47;;;4.03;;
946;SDS011;460;48.734;9.152;2024-02-16T06:39:21;6.47;;;4.57;;
946;SDS011;460;48.734;9.152;2024-02-16T06:41:50;5.17;;;4.30;;
946;SDS011;460;48.734;9.152;2024-02-16T06:44:17;4.03;;;3.23;;
946;SDS011;460;48.734;9.152;2024-02-16T06:46:44;5.43;;;4.27;;
946;SDS011;460;48.734;9.152;2024-02-16T06:49:11;4.80;;;4.37;;
946;SDS011;460;48.734;9.152;2024-02-16T06:51:38;4.23;;;3.83;;
946;SDS011;460;48.734;9.152;2024-02-16T06:54:05;6.27;;;5.10;;
946;SDS011;460;48.734;9.152;2024-02-16T06:56:32;10.40;;;4.80;;
946;SDS011;460;48.734;9.152;2024-02-16T06:59:02;4.77;;;3.90;;
946;SDS011;460;48.734;9.152;2024-02-16T07:01:29;4.70;;;4.20;;
946;SDS011;460;48.734;9.152;2024-02-16T07:03:56;4.87;;;4.33;;
946;SDS011;460;48.734;9.152;2024-02-16T07:06:22;10.90;;;4.00;;
946;SDS011;460;48.734;9.152;2024-02-16T07:08:50;6.57;;;4.50;;
946;SDS011;460;48.734;9.152;2024-02-16T07:11:17;5.10;;;4.60;;
946;SDS011;460;48.734;9.152;2024-02-16T07:13:46;6.00;;;4.23;;
946;SDS011;460;48.734;9.152;2024-02-16T07:16:14;5.33;;;4.93;;
946;SDS011;460;48.734;9.152;2024-02-16T07:18:41;5.50;;;4.97;;
946;SDS011;460;48.734;9.152;2024-02-16T07:21:08;7.53;;;4.30;;
946;SDS011;460;48.734;9.152;2024-02-16T07:23:36;5.27;;;4.77;;
946;SDS011;460;48.734;9.152;2024-02-16T07:26:03;6.67;;;5.60;;
946;SDS011;460;48.734;9.152;2024-02-16T07:28:30;7.60;;;6.07;;
946;SDS011;460;48.734;9.152;2024-02-16T07:30:57;5.60;;;5.10;;
946;SDS011;460;48.734;9.152;2024-02-16T07:33:26;9.13;;;6.10;;
946;SDS011;460;48.734;9.152;2024-02-16T07:35:53;6.73;;;4.93;;
946;SDS011;460;48.734;9.152;2024-02-16T07:38:21;6.57;;;5.87;;
946;SDS011;460;48.734;9.152;2024-02-16T07:40:48;6.50;;;4.70;;
946;SDS011;460;48.734;9.152;2024-02-16T07:43:15;7.60;;;5.17;;
946;SDS011;460;48.734;9.152;2024-02-16T07:45:43;6.90;;;4.97;;
946;SDS011;460;48.734;9.152;2024-02-16T07:48:10;7.23;;;6.63;;
946;SDS011;460;48.734;9.152;2024-02-16T07:50:39;7.50;;;6.70;;
946;SDS011;460;48.734;9.152;2024-02-16T07:53:06;10.03;;;6.90;;
946;SDS011;460;48.734;9.152;2024-02-16T07:55:35;8.03;;;5.80;;
946;SDS011;460;48.734;9.152;2024-02-16T07:58:02;6.83;;;5.50;;
946;SDS011;460;48.734;9.152;2024-02-16T08:00:29;6.10;;;5.30;;
946;SDS011;460;48.734;9.152;2024-02-16T08:02:56;5.77;;;5.20;;
946;SDS011;460;48.734;9.152;2024-02-16T08:05:23;11.87;;;6.77;;
946;SDS011;460;48.734;9.152;2024-02-16T08:07:53;7.13;;;5.73;;
946;SDS011;460;48.734;9.152;2024-02-16T08:10:20;9.07;;;6.73;;
946;SDS011;460;48.734;9.152;2024-02-16T08:12:48;10.93;;;6.27;;
946;SDS011;460;48.734;9.152;2024-02-16T08:15:15;6.73;;;5.57;;
946;SDS011;460;48.734;9.152;2024-02-16T08:17:48;4.73;;;4.23;;
946;SDS011;460;48.734;9.152;2024-02-16T08:20:15;8.27;;;4.30;;
946;SDS011;460;48.734;9.152;2024-02-16T08:22:42;6.50;;;4.40;;
946;SDS011;460;48.734;9.152;2024-02-16T08:25:11;4.53;;;3.80;;
946;SDS011;460;48.734;9.152;2024-02-16T08:27:37;4.73;;;4.07;;
946;SDS011;460;48.734;9.152;2024-02-16T08:30:05;4.97;;;3.87;;
946;SDS011;460;48.734;9.152;2024-02-16T08:32:34;6.33;;;3.80;;
946;SDS011;460;48.734;9.152;2024-02-16T08:35:01;5.40;;;3.93;;
946;SDS011;460;48.734;9.152;2024-02-16T08:37:28;4.00;;;3.40;;
946;SDS011;460;48.734;9.152;2024-02-16T08:39:55;8.83;;;3.50;;
946;SDS011;460;48.734;9.152;2024-02-16T08:42:23;4.80;;;3.47;;
946;SDS011;460;48.734;9.152;2024-02-16T08:44:50;3.90;;;2.60;;
946;SDS011;460;48.734;9.152;2024-02-16T08:47:17;2.50;;;2.30;;
946;SDS011;460;48.734;9.152;2024-02-16T08:49:44;2.60;;;2.30;;
946;SDS011;460;48.734;9.152;2024-02-16T08:52:11;3.37;;;2.70;;
946;SDS011;460;48.734;9.152;2024-02-16T08:54:38;2.63;;;2.43;;
946;SDS011;460;48.734;9.152;2024-02-16T08:57:05;2.80;;;2.03;;
946;SDS011;460;48.734;9.152;2024-02-16T08:59:34;2.43;;;2.20;;
946;SDS011;460;48.734;9.152;2024-02-16T09:02:00;1.90;;;1.80;;
946;SDS011;460;48.734;9.152;2024-02-16T09:04:28;2.20;;;1.80;;
946;SDS011;460;48.734;9.152;2024-02-16T09:06:55;1.93;;;1.60;;
946;SDS011;460;48.734;9.152;2024-02-16T09:09:22;2.70;;;2.23;;
946;SDS011;460;48.734;9.152;2024-02-16T09:11:50;2.73;;;1.43;;
946;SDS011;460;48.734;9.152;2024-02-16T09:14:18;2.70;;;1.67;;
946;SDS011;460;48.734;9.152;2024-02-16T09:16:46;3.03;;;2.07;;
946;SDS011;460;48.734;9.152;2024-02-16T09:19:16;1.77;;;1.30;;
946;SDS011;460;48.734;9.152;2024-02-16T09:21:44;1.77;;;1.50;;
946;SDS011;460;48.734;9.152;2024-02-16T09:24:12;1.57;;;1.47;;
946;SDS011;460;48.734;9.152;2024-02-16T09:26:42;3.33;;;1.80;;
946;SDS011;460;48.734;9.152;2024-02-16T09:29:11;1.70;;;1.60;;
946;SDS011;460;48.734;9.152;2024-02-16T09:31:38;5.40;;;2.07;;
946;SDS011;460;48.734;9.152;2024-02-16T09:34:06;2.30;;;1.73;;
946;SDS011;460;48.734;9.152;2024-02-16T09:36:34;4.10;;;1.97;;
946;SDS011;460;48.734;9.152;2024-02-16T09:39:01;4.47;;;2.00;;
946;SDS011;460;48.734;9.152;2024-02-16T09:41:29;1.70;;;1.60;;
946;SDS011;460;48.734;9.152;2024-02-16T09:43:57;2.57;;;1.63;;
946;SDS011;460;48.734;9.152;2024-02-16T09:46:24;2.40;;;1.70;;
946;SDS011;460;48.734;9.152;2024-02-16T09:48:52;3.37;;;2.03;;
946;SDS011;460;48.734;9.152;2024-02-16T09:51:22;2.33;;;1.60;;
946;SDS011;460;48.734;9.152;2024-02-16T09:53:50;6.13;;;3.80;;
946;SDS011;460;48.734;9.152;2024-02-16T09:56:18;2.67;;;2.40;;
946;SDS011;460;48.734;9.152;2024-02-16T09:58:46;2.03;;;1.83;;
946;SDS011;460;48.734;9.152;2024-02-16T10:01:17;2.80;;;2.07;;
946;SDS011;460;48.734;9.152;2024-02-16T10:03:45;2.97;;;2.00;;
946;SDS011;460;48.734;9.152;2024-02-16T10:06:12;6.40;;;2.10;;
946;SDS011;460;48.734;9.152;2024-02-16T10:08:48;2.40;;;1.53;;
946;SDS011;460;48.734;9.152;2024-02-16T10:11:15;2.47;;;2.27;;
946;SDS011;460;48.734;9.152;2024-02-16T10:13:53;2.23;;;2.03;;
946;SDS011;460;48.734;9.152;2024-02-16T10:16:21;2.70;;;1.97;;
946;SDS011;460;48.734;9.152;2024-02-16T10:18:48;2.37;;;2.03;;
946;SDS011;460;48.734;9.152;2024-02-16T10:21:23;1.93;;;1.70;;
946;SDS011;460;48.734;9.152;2024-02-16T10:23:56;6.90;;;2.33;;
946;SDS011;460;48.734;9.152;2024-02-16T10:26:26;2.00;;;1.80;;
946;SDS011;460;48.734;9.152;2024-02-16T10:28:54;4.30;;;2.20;;
946;SDS011;460;48.734;9.152;2024-02-16T10:31:22;2.83;;;2.13;;
946;SDS011;460;48.734;9.152;2024-02-16T10:33:54;2.20;;;2.03;;
946;SDS011;460;48.734;9.152;2024-02-16T10:36:23;2.30;;;2.10;;
946;SDS011;460;48.734;9.152;2024-02-16T10:38:53;2.47;;;1.90;;
946;SDS011;460;48.734;9.152;2024-02-16T10:41:23;2.40;;;2.20;;
946;SDS011;460;48.734;9.152;2024-02-16T10:43:53;2.03;;;1.77;;
946;SDS011;460;48.734;9.152;2024-02-16T10:46:21;2.57;;;2.10;;
946;SDS011;460;48.734;9.152;2024-02-16T10:48:49;7.77;;;2.53;;
946;SDS011;460;48.734;9.152;2024-02-16T10:51:17;2.30;;;1.77;;
946;SDS011;460;48.734;9.152;2024-02-16T10:53:50;4.10;;;2.10;;
946;SDS011;460;48.734;9.152;2024-02-16T10:56:27;2.10;;;1.60;;
946;SDS011;460;48.734;9.152;2024-02-16T10:58:59;5.23;;;1.90;;
946;SDS011;460;48.734;9.152;2024-02-16T11:01:31;4.70;;;2.10;;
946;SDS011;460;48.734;9.152;2024-02-16T11:04:03;3.20;;;3.00;;
946;SDS011;460;48.734;9.152;2024-02-16T11:06:33;5.87;;;4.20;;
946;SDS011;460;48.734;9.152;2024-02-16T11:09:23;6.47;;;4.53;;
946;SDS011;460;48.734;9.152;2024-02-16T11:11:53;4.13;;;3.70;;
946;SDS011;460;48.734;9.152;2024-02-16T11:14:21;4.63;;;4.23;;
946;SDS011;460;48.734;9.152;2024-02-16T11:16:49;2.57;;;2.13;;
946;SDS011;460;48.734;9.152;2024-02-16T11:19:19;2.20;;;1.80;;
946;SDS011;460;48.734;9.152;2024-02-16T11:21:57;2.53;;;1.67;;
946;SDS011;460;48.734;9.152;2024-02-16T11:24:31;2.07;;;1.90;;
946;SDS011;460;48.734;9.152;2024-02-16T11:27:00;3.50;;;2.00;;
946;SDS011;460;48.734;9.152;2024-02-16T11:29:29;4.53;;;2.17;;
946;SDS011;460;48.734;9.152;2024-02-16T11:31:58;4.80;;;2.50;;
946;SDS011;460;48.734;9.152;2024-02-16T11:34:27;3.27;;;2.20;;
946;SDS011;460;48.734;9.152;2024-02-16T11:36:54;3.10;;;2.10;;
946;SDS011;460;48.734;9.152;2024-02-16T11:39:21;2.80;;;1.90;;
946;SDS011;460;48.734;9.152;2024-02-16T11:41:48;2.60;;;1.97;;
946;SDS011;460;48.734;9.152;2024-02-16T11:44:28;2.90;;;1.70;;
946;SDS011;460;48.734;9.152;2024-02-16T11:46:55;3.60;;;1.90;;
946;SDS011;460;48.734;9.152;2024-02-16T11:49:22;2.27;;;2.07;;
946;SDS011;460;48.734;9.152;2024-02-16T11:51:49;2.27;;;2.07;;
946;SDS011;460;48.734;9.152;2024-02-16T11:54:16;3.10;;;2.13;;
946;SDS011;460;48.734;9.152;2024-02-16T11:56:43;2.33;;;2.10;;
946;SDS011;460;48.734;9.152;2024-02-16T11:59:13;3.60;;;2.03;;
946;SDS011;460;48.734;9.152;2024-02-16T12:01:50;2.30;;;2.10;;
946;SDS011;460;48.734;9.152;2024-02-16T12:04:21;3.20;;;2.20;;
946;SDS011;460;48.734;9.152;2024-02-16T12:06:50;7.17;;;2.87;;
946;SDS011;460;48.734;9.152;2024-02-16T12:09:18;2.57;;;2.10;;
946;SDS011;460;48.734;9.152;2024-02-16T12:11:46;3.80;;;2.50;;
946;SDS011;460;48.734;9.152;2024-02-16T12:14:15;3.57;;;1.70;;
946;SDS011;460;48.734;9.152;2024-02-16T12:16:43;4.30;;;2.00;;
946;SDS011;460;48.734;9.152;2024-02-16T12:19:13;3.60;;;2.13;;
946;SDS011;460;48.734;9.152;2024-02-16T12:21:40;6.80;;;2.00;;
946;SDS011;460;48.734;9.152;2024-02-16T12:24:07;3.67;;;2.87;;
946;SDS011;460;48.734;9.152;2024-02-16T12:26:34;2.57;;;2.10;;
946;SDS011;460;48.734;9.152;2024-02-16T12:29:01;6.00;;;2.40;;
946;SDS011;460;48.734;9.152;2024-02-16T12:31:29;3.67;;;2.47;;
946;SDS011;460;48.734;9.152;2024-02-16T12:33:56;4.83;;;2.33;;
946;SDS011;460;48.734;9.152;2024-02-16T12:36:23;2.10;;;1.90;;
946;SDS011;460;48.734;9.152;2024-02-16T12:38:50;2.00;;;1.90;;
946;SDS011;460;48.734;9.152;2024-02-16T12:41:16;3.00;;;2.70;;
946;SDS011;460;48.734;9.152;2024-02-16T12:43:43;2.30;;;1.93;;
946;SDS011;460;48.734;9.152;2024-02-16T12:46:10;3.40;;;2.20;;
946;SDS011;460;48.734;9.152;2024-02-16T12:48:38;2.93;;;2.30;;
946;SDS011;460;48.734;9.152;2024-02-16T12:51:05;1.93;;;1.83;;
946;SDS011;460;48.734;9.152;2024-02-16T12:53:32;6.50;;;2.80;;
946;SDS011;460;48.734;9.152;2024-02-16T12:56:05;3.00;;;2.70;;
946;SDS011;460;48.734;9.152;2024-02-16T12:58:32;2.50;;;2.00;;
946;SDS011;460;48.734;9.152;2024-02-16T13:00:59;3.60;;;2.23;;
946;SDS011;460;48.734;9.152;2024-02-16T13:03:26;4.30;;;2.17;;
946;SDS011;460;48.734;9.152;2024-02-16T13:05:54;2.83;;;1.80;;
946;SDS011;460;48.734;9.152;2024-02-16T13:08:22;3.73;;;2.60;;
946;SDS011;460;48.734;9.152;2024-02-16T13:10:49;3.90;;;2.10;;
946;SDS011;460;48.734;9.152;2024-02-16T13:13:15;3.60;;;2.93;;
946;SDS011;460;48.734;9.152;2024-02-16T13:15:42;2.60;;;2.40;;
946;SDS011;460;48.734;9.152;2024-02-16T13:18:09;4.77;;;2.50;;
946;SDS011;460;48.734;9.152;2024-02-16T13:20:36;3.93;;;2.00;;
946;SDS011;460;48.734;9.152;2024-02-16T13:23:04;1.90;;;1.80;;
946;SDS011;460;48.734;9.152;2024-02-16T13:25:31;2.63;;;2.27;;
946;SDS011;460;48.734;9.152;2024-02-16T13:27:58;6.20;;;4.60;;
946;SDS011;460;48.734;9.152;2024-02-16T13:30:25;5.00;;;2.73;;
946;SDS011;460;48.734;9.152;2024-02-16T13:32:52;2.27;;;1.90;;
946;SDS011;460;48.734;9.152;2024-02-16T13:35:19;7.33;;;2.27;;
946;SDS011;460;48.734;9.152;2024-02-16T13:37:46;3.30;;;1.90;;
946;SDS011;460;48.734;9.152;2024-02-16T13:40:14;3.30;;;2.30;;
946;SDS011;460;48.734;9.152;2024-02-16T13:42:42;2.90;;;2.20;;
946;SDS011;460;48.734;9.152;2024-02-16T13:45:10;2.30;;;2.10;;
946;SDS011;460;48.734;9.152;2024-02-16T13:47:37;2.63;;;2.20;;
946;SDS011;460;48.734;9.152;2024-02-16T13:50:05;3.43;;;2.23;;
946;SDS011;460;48.734;9.152;2024-02-16T13:52:32;3.47;;;2.20;;
946;SDS011;460;48.734;9.152;2024-02-16T13:55:00;2.30;;;2.00;;
946;SDS011;460;48.734;9.152;2024-02-16T13:57:29;3.10;;;2.60;;
946;SDS011;460;48.734;9.152;2024-02-16T13:59:55;6.33;;;2.37;;
946;SDS011;460;48.734;9.152;2024-02-16T14:02:23;3.23;;;2.93;;
946;SDS011;460;48.734;9.152;2024-02-16T14:04:50;2.87;;;2.30;;
946;SDS011;460;48.734;9.152;2024-02-16T14:07:17;3.17;;;2.80;;
946;SDS011;460;48.734;9.152;2024-02-16T14:09:44;3.37;;;3.00;;
946;SDS011;460;48.734;9.152;2024-02-16T14:12:11;5.23;;;3.40;;
946;SDS011;460;48.734;9.152;2024-02-16T14:14:39;3.93;;;2.70;;
946;SDS011;460;48.734;9.152;2024-02-16T14:17:06;3.47;;;3.17;;
946;SDS011;460;48.734;9.152;2024-02-16T14:19:33;3.50;;;2.57;;
946;SDS011;460;48.734;9.152;2024-02-16T14:22:02;4.10;;;3.73;;
946;SDS011;460;48.734;9.152;2024-02-16T14:24:32;10.83;;;3.40;;
946;SDS011;460;48.734;9.152;2024-02-16T14:26:59;2.93;;;2.63;;
946;SDS011;460;48.734;9.152;2024-02-16T14:29:26;4.47;;;2.53;;
946;SDS011;460;48.734;9.152;2024-02-16T14:31:55;2.80;;;2.40;;
946;SDS011;460;48.734;9.152;2024-02-16T14:34:22;5.57;;;2.63;;
946;SDS011;460;48.734;9.152;2024-02-16T14:36:49;6.40;;;3.37;;
946;SDS011;460;48.734;9.152;2024-02-16T14:39:16;7.67;;;2.80;;
946;SDS011;460;48.734;9.152;2024-02-16T14:41:43;4.20;;;2.23;;
946;SDS011;460;48.734;9.152;2024-02-16T14:44:10;5.33;;;1.60;;
946;SDS011;460;48.734;9.152;2024-02-16T14:46:38;6.53;;;1.77;;
946;SDS011;460;48.734;9.152;2024-02-16T14:49:06;7.33;;;2.27;;
946;SDS011;460;48.734;9.152;2024-02-16T14:51:33;5.53;;;1.73;;
946;SDS011;460;48.734;9.152;2024-02-16T14:54:01;5.60;;;2.03;;
946;SDS011;460;48.734;9.152;2024-02-16T14:56:29;2.30;;;2.03;;
946;SDS011;460;48.734;9.152;2024-02-16T14:58:56;3.33;;;1.93;;
946;SDS011;460;48.734;9.152;2024-02-16T15:01:23;3.73;;;1.57;;
946;SDS011;460;48.734;9.152;2024-02-16T15:03:50;8.50;;;1.73;;
946;SDS011;460;48.734;9.152;2024-02-16T15:06:19;8.07;;;2.13;;
946;SDS011;460;48.734;9.152;2024-02-16T15:08:46;3.23;;;2.17;;
946;SDS011;460;48.734;9.152;2024-02-16T15:11:13;3.10;;;1.40;;
946;SDS011;460;48.734;9.152;2024-02-16T15:13:41;8.90;;;1.73;;
946;SDS011;460;48.734;9.152;2024-02-16T15:16:08;3.43;;;1.50;;
946;SDS011;460;48.734;9.152;2024-02-16T15:18:36;2.30;;;1.53;;
946;SDS011;460;48.734;9.152;2024-02-16T15:21:03;1.83;;;1.73;;
946;SDS011;460;48.734;9.152;2024-02-16T15:23:31;5.33;;;3.07;;
946;SDS011;460;48.734;9.152;2024-02-16T15:25:58;7.60;;;2.37;;
946;SDS011;460;48.734;9.152;2024-02-16T15:28:28;11.40;;;4.50;;
946;SDS011;460;48.734;9.152;2024-02-16T15:30:55;13.60;;;3.93;;
946;SDS011;460;48.734;9.152;2024-02-16T15:33:22;3.83;;;2.60;;
946;SDS011;460;48.734;9.152;2024-02-16T15:35:49;2.10;;;1.70;;
946;SDS011;460;48.734;9.152;2024-02-16T15:38:16;4.83;;;2.80;;
946;SDS011;460;48.734;9.152;2024-02-16T15:40:45;2.67;;;1.67;;
946;SDS011;460;48.734;9.152;2024-02-16T15:43:12;4.83;;;1.20;;
946;SDS011;460;48.734;9.152;2024-02-16T15:45:41;1.80;;;1.60;;
946;SDS011;460;48.734;9.152;2024-02-16T15:48:10;5.00;;;3.73;;